createdAt,value
2016-08-25T00:00:08.050Z,87.94
2016-08-25T00:01:08.047Z,88.04
2016-08-25T00:02:08.740Z,87.94
2016-08-25T00:03:08.030Z,88.04
2016-08-25T00:04:08.024Z,88.61
2016-08-25T00:05:08.030Z,88.42
2016-08-25T00:06:08.008Z,88.9
2016-08-25T00:07:08.711Z,88.71
2016-08-25T00:08:07.997Z,88.42
2016-08-25T00:09:07.988Z,88.42
2016-08-25T00:10:07.983Z,89
2016-08-25T00:11:07.975Z,89
2016-08-25T00:12:07.968Z,89.19
2016-08-25T00:13:08.670Z,88.95
2016-08-25T00:14:07.957Z,89.43
2016-08-25T00:15:08.654Z,90.11
2016-08-25T00:16:07.942Z,90.06
2016-08-25T00:17:08.642Z,90.3
2016-08-25T00:18:07.929Z,90.97
2016-08-25T00:19:07.922Z,90.69
2016-08-25T00:20:07.923Z,90.59
2016-08-25T00:21:07.905Z,90.78
2016-08-25T00:22:08.622Z,91.36
2016-08-25T00:23:07.892Z,91.27
2016-08-25T00:24:07.886Z,91.46
2016-08-25T00:25:07.885Z,91.55
2016-08-25T00:26:07.875Z,91.55
2016-08-25T00:27:07.869Z,91.55
2016-08-25T00:28:07.862Z,91.17
2016-08-25T00:29:08.566Z,91.84
2016-08-25T00:30:08.558Z,91.84
2016-08-25T00:31:07.841Z,92.13
2016-08-25T00:32:08.537Z,91.89
2016-08-25T00:33:08.539Z,91.94
2016-08-25T00:34:07.821Z,91.84
2016-08-25T00:35:08.516Z,92.18
2016-08-25T00:36:08.523Z,92.32
2016-08-25T00:37:07.802Z,92.66
2016-08-25T00:38:07.801Z,92.52
2016-08-25T00:39:07.785Z,92.47
2016-08-25T00:40:07.783Z,92.18
2016-08-25T00:41:07.769Z,92.47
2016-08-25T00:42:07.766Z,93.24
2016-08-25T00:43:08.478Z,92.38
2016-08-25T00:44:07.751Z,92.28
2016-08-25T00:45:08.458Z,93.33
2016-08-25T00:46:07.739Z,93.05
2016-08-25T00:47:08.435Z,92.76
2016-08-25T00:48:07.722Z,93.24
2016-08-25T00:49:07.719Z,92.95
2016-08-25T00:50:07.709Z,92.85
2016-08-25T00:51:07.699Z,93.43
2016-08-25T00:52:08.404Z,93.05
2016-08-25T00:53:07.686Z,93.05
2016-08-25T00:54:07.680Z,92.95
2016-08-25T00:55:08.390Z,93.24
2016-08-25T00:56:08.374Z,94.2
2016-08-25T00:57:07.668Z,94.1
2016-08-25T00:58:07.661Z,93.91
2016-08-25T00:59:07.649Z,94.01
2016-08-25T01:00:07.642Z,93.91
2016-08-25T01:01:08.348Z,94.2
2016-08-25T01:02:08.337Z,94.59
2016-08-25T01:03:07.616Z,94.45
2016-08-25T01:04:07.612Z,94.15
2016-08-25T01:05:07.600Z,94.73
2016-08-25T01:06:08.349Z,94.45
2016-08-25T01:07:07.592Z,94.35
2016-08-25T01:08:08.298Z,94.25
2016-08-25T01:09:07.574Z,94.45
2016-08-25T01:10:07.565Z,94.54
2016-08-25T01:11:08.269Z,94.54
2016-08-25T01:12:08.263Z,94.73
2016-08-25T01:13:07.543Z,94.35
2016-08-25T01:14:08.243Z,94.92
2016-08-25T01:15:08.235Z,95.02
2016-08-25T01:16:08.230Z,94.45
2016-08-25T01:17:08.224Z,94.35
2016-08-25T01:18:07.508Z,94.64
2016-08-25T01:19:08.209Z,94.92
2016-08-25T01:20:08.202Z,94.83
2016-08-25T01:21:07.490Z,94.54
2016-08-25T01:22:07.480Z,94.92
2016-08-25T01:23:08.182Z,95.7
2016-08-25T01:24:07.462Z,95.5
2016-08-25T01:25:07.457Z,95.5
2016-08-25T01:26:08.157Z,95.12
2016-08-25T01:27:07.443Z,95.45
2016-08-25T01:28:08.144Z,95.21
2016-08-25T01:29:07.425Z,95.6
2016-08-25T01:30:08.131Z,95.07
2016-08-25T01:31:08.121Z,95.5
2016-08-25T01:32:08.111Z,96.08
2016-08-25T01:33:07.398Z,95.21
2016-08-25T01:34:07.393Z,95.94
2016-08-25T01:35:07.434Z,95.45
2016-08-25T01:36:07.383Z,95.36
2016-08-25T01:37:07.368Z,96.37
2016-08-25T01:38:08.071Z,96.03
2016-08-25T01:39:08.066Z,95.65
2016-08-25T01:40:08.053Z,95.45
2016-08-25T01:41:08.052Z,95.84
2016-08-25T01:42:08.050Z,95.26
2016-08-25T01:43:07.325Z,95.65
2016-08-25T01:44:08.023Z,95.55
2016-08-25T01:45:08.018Z,96.27
2016-08-25T01:46:08.012Z,95.84
2016-08-25T01:47:08.005Z,95.65
2016-08-25T01:48:07.289Z,95.6
2016-08-25T01:49:07.280Z,95.75
2016-08-25T01:50:07.985Z,95.75
2016-08-25T01:51:07.267Z,96.03
2016-08-25T01:52:07.972Z,95.75
2016-08-25T01:53:07.958Z,95.84
2016-08-25T01:54:07.955Z,95.65
2016-08-25T01:55:07.237Z,96.03
2016-08-25T01:56:07.229Z,96.22
2016-08-25T01:57:07.224Z,96.13
2016-08-25T01:58:07.215Z,95.75
2016-08-25T01:59:07.913Z,96.03
2016-08-25T02:00:07.909Z,96.32
2016-08-25T02:01:07.898Z,97.19
2016-08-25T02:02:07.185Z,96.42
2016-08-25T02:03:07.884Z,96.32
2016-08-25T02:04:07.172Z,95.65
2016-08-25T02:05:07.164Z,96.22
2016-08-25T02:06:07.155Z,96.7
2016-08-25T02:07:07.854Z,95.94
2016-08-25T02:08:07.140Z,95.75
2016-08-25T02:09:07.133Z,95.94
2016-08-25T02:10:07.845Z,95.84
2016-08-25T02:11:07.822Z,96.22
2016-08-25T02:12:07.109Z,96.51
2016-08-25T02:13:07.808Z,96.42
2016-08-25T02:14:07.094Z,96.22
2016-08-25T02:15:07.797Z,96.32
2016-08-25T02:16:07.081Z,95.65
2016-08-25T02:17:07.779Z,95.65
2016-08-25T02:18:07.065Z,96.7
2016-08-25T02:19:07.058Z,96.99
2016-08-25T02:20:07.050Z,97.28
2016-08-25T02:21:07.040Z,97.47
2016-08-25T02:22:07.746Z,96.8
2016-08-25T02:23:07.742Z,96.51
2016-08-25T02:24:07.020Z,96.32
2016-08-25T02:25:07.723Z,96.61
2016-08-25T02:26:07.710Z,96.13
2016-08-25T02:27:06.996Z,96.42
2016-08-25T02:28:06.988Z,96.22
2016-08-25T02:29:07.689Z,96.51
2016-08-25T02:30:06.973Z,96.8
2016-08-25T02:31:06.967Z,96.42
2016-08-25T02:32:07.664Z,96.51
2016-08-25T02:33:06.955Z,96.8
2016-08-25T02:34:06.945Z,96.61
2016-08-25T02:35:06.936Z,96.42
2016-08-25T02:36:06.930Z,96.22
2016-08-25T02:37:06.919Z,96.22
2016-08-25T02:38:07.620Z,96.61
2016-08-25T02:39:06.902Z,96.22
2016-08-25T02:40:07.609Z,96.75
2016-08-25T02:41:06.892Z,97.47
2016-08-25T02:42:06.883Z,97.42
2016-08-25T02:43:06.874Z,96.66
2016-08-25T02:44:06.869Z,96.85
2016-08-25T02:45:06.863Z,96.56
2016-08-25T02:46:06.853Z,97.42
2016-08-25T02:47:06.844Z,97.04
2016-08-25T02:48:06.834Z,97.14
2016-08-25T02:49:06.828Z,97.04
2016-08-25T02:50:07.528Z,96.85
2016-08-25T02:51:06.809Z,97.04
2016-08-25T02:52:06.811Z,97.24
2016-08-25T02:53:06.798Z,97.33
2016-08-25T02:54:06.790Z,97.71
2016-08-25T02:55:06.789Z,97.71
2016-08-25T02:56:07.481Z,97.52
2016-08-25T02:57:07.476Z,97.42
2016-08-25T02:58:07.467Z,97.24
2016-08-25T02:59:06.750Z,97.62
2016-08-25T03:00:07.452Z,97.71
2016-08-25T03:01:06.735Z,98.19
2016-08-25T03:02:07.436Z,98.29
2016-08-25T03:03:06.720Z,97.71
2016-08-25T03:04:07.420Z,97.81
2016-08-25T03:05:07.414Z,97.81
2016-08-25T03:06:06.704Z,98
2016-08-25T03:07:06.693Z,97.91
2016-08-25T03:08:07.388Z,97.91
2016-08-25T03:09:06.679Z,97.52
2016-08-25T03:10:07.377Z,98.58
2016-08-25T03:11:07.369Z,98.1
2016-08-25T03:12:07.377Z,98.48
2016-08-25T03:13:06.650Z,98.68
2016-08-25T03:14:06.650Z,98.39
2016-08-25T03:15:06.632Z,98.58
2016-08-25T03:16:06.622Z,98.63
2016-08-25T03:17:06.621Z,98.58
2016-08-25T03:18:06.604Z,98.58
2016-08-25T03:19:07.303Z,98.1
2016-08-25T03:20:07.297Z,98.72
2016-08-25T03:21:07.289Z,98.39
2016-08-25T03:22:07.284Z,98.34
2016-08-25T03:23:07.277Z,98.34
2016-08-25T03:24:07.262Z,98.58
2016-08-25T03:25:07.261Z,98.58
2016-08-25T03:26:07.249Z,98.53
2016-08-25T03:27:06.533Z,98.58
2016-08-25T03:28:06.527Z,98.77
2016-08-25T03:29:06.519Z,98.82
2016-08-25T03:30:06.508Z,98.43
2016-08-25T03:31:06.506Z,98.53
2016-08-25T03:32:06.495Z,98.34
2016-08-25T03:33:06.486Z,98.14
2016-08-25T03:34:07.185Z,98.34
2016-08-25T03:35:06.482Z,98.53
2016-08-25T03:36:06.462Z,98.82
2016-08-25T03:37:06.456Z,98.82
2016-08-25T03:38:06.451Z,98.91
2016-08-25T03:39:07.146Z,99.01
2016-08-25T03:40:07.138Z,99.01
2016-08-25T03:41:07.130Z,98.82
2016-08-25T03:42:07.126Z,99.01
2016-08-25T03:43:07.116Z,99.1
2016-08-25T03:44:07.106Z,99.3
2016-08-25T03:45:06.390Z,98.91
2016-08-25T03:46:07.090Z,98.53
2016-08-25T03:47:06.375Z,98.53
2016-08-25T03:48:07.072Z,98.72
2016-08-25T03:49:06.358Z,99.01
2016-08-25T03:50:06.350Z,99.3
2016-08-25T03:51:07.050Z,99.2
2016-08-25T03:52:06.336Z,99.49
2016-08-25T03:53:07.038Z,99.2
2016-08-25T03:54:07.027Z,99.49
2016-08-25T03:55:06.314Z,99.58
2016-08-25T03:56:07.012Z,99.3
2016-08-25T03:57:07.003Z,99.58
2016-08-25T03:58:07.001Z,99.78
2016-08-25T03:59:06.988Z,99.78
2016-08-25T04:00:06.981Z,99.58
2016-08-25T04:01:06.271Z,99.99
2016-08-25T04:02:06.262Z,99.58
2016-08-25T04:03:06.249Z,99.68
2016-08-25T04:04:06.248Z,99.99
2016-08-25T04:05:06.941Z,99.99
2016-08-25T04:06:06.933Z,99.97
2016-08-25T04:07:06.218Z,99.99
2016-08-25T04:08:06.208Z,99.99
2016-08-25T04:09:06.907Z,99.99
2016-08-25T04:10:06.905Z,99.99
2016-08-25T04:11:06.895Z,99.99
2016-08-25T04:12:06.884Z,99.99
2016-08-25T04:13:06.170Z,99.99
2016-08-25T04:14:06.867Z,99.99
2016-08-25T04:15:06.153Z,99.99
2016-08-25T04:16:06.148Z,99.99
2016-08-25T04:17:06.845Z,99.99
2016-08-25T04:18:06.180Z,99.99
2016-08-25T04:19:06.125Z,99.99
2016-08-25T04:20:06.116Z,99.99
2016-08-25T04:21:06.812Z,99.99
2016-08-25T04:22:06.097Z,99.99
2016-08-25T04:23:06.091Z,99.99
2016-08-25T04:24:06.787Z,99.99
2016-08-25T04:25:06.078Z,99.99
2016-08-25T04:26:06.775Z,99.99
2016-08-25T04:27:06.765Z,99.99
2016-08-25T04:28:06.048Z,99.99
2016-08-25T04:29:06.049Z,99.99
2016-08-25T04:30:06.039Z,99.99
2016-08-25T04:31:06.028Z,99.99
2016-08-25T04:32:06.017Z,99.99
2016-08-25T04:33:06.009Z,99.99
2016-08-25T04:34:06.050Z,99.99
2016-08-25T04:35:06.807Z,99.99
2016-08-25T04:36:06.702Z,99.99
2016-08-25T04:37:06.697Z,99.99
2016-08-25T04:38:06.028Z,99.99
2016-08-25T04:39:06.680Z,99.99
2016-08-25T04:40:05.952Z,99.97
2016-08-25T04:41:05.947Z,99.99
2016-08-25T04:42:06.644Z,99.97
2016-08-25T04:43:05.928Z,99.78
2016-08-25T04:44:06.633Z,99.78
2016-08-25T04:45:05.915Z,99.78
2016-08-25T04:46:06.622Z,99.68
2016-08-25T04:47:05.906Z,99.58
2016-08-25T04:48:05.890Z,99.68
2016-08-25T04:49:05.881Z,99.87
2016-08-25T04:50:05.878Z,99.68
2016-08-25T04:51:05.865Z,99.68
2016-08-25T04:52:05.860Z,99.49
2016-08-25T04:53:06.557Z,99.99
2016-08-25T04:54:06.552Z,99.99
2016-08-25T04:55:05.834Z,99.68
2016-08-25T04:56:05.833Z,99.68
2016-08-25T04:57:05.820Z,99.68
2016-08-25T04:58:05.812Z,99.97
2016-08-25T04:59:05.805Z,99.68
2016-08-25T05:00:05.795Z,99.99
2016-08-25T05:01:05.786Z,99.99
2016-08-25T05:02:06.493Z,99.99
2016-08-25T05:03:05.775Z,99.99
2016-08-25T05:04:05.765Z,99.99
2016-08-25T05:05:05.754Z,99.99
2016-08-25T05:06:06.460Z,99.99
2016-08-25T05:07:05.741Z,99.99
2016-08-25T05:08:06.443Z,99.99
2016-08-25T05:09:05.723Z,99.99
2016-08-25T05:10:05.714Z,99.99
2016-08-25T05:11:05.708Z,99.99
2016-08-25T05:12:05.699Z,99.99
2016-08-25T05:13:05.691Z,99.99
2016-08-25T05:14:05.682Z,99.99
2016-08-25T05:15:05.674Z,99.99
2016-08-25T05:16:06.377Z,99.99
2016-08-25T05:17:06.378Z,99.99
2016-08-25T05:18:05.648Z,99.99
2016-08-25T05:19:05.643Z,99.99
2016-08-25T05:20:05.641Z,99.99
2016-08-25T05:21:05.628Z,99.99
2016-08-25T05:22:05.620Z,99.99
2016-08-25T05:23:05.663Z,99.99
2016-08-25T05:24:06.359Z,99.99
2016-08-25T05:25:05.598Z,99.83
2016-08-25T05:26:05.589Z,99.73
2016-08-25T05:27:05.577Z,99.92
2016-08-25T05:28:06.288Z,99.92
2016-08-25T05:29:06.273Z,99.54
2016-08-25T05:30:05.607Z,99.44
2016-08-25T05:31:06.257Z,98.86
2016-08-25T05:32:05.546Z,99.73
2016-08-25T05:33:05.583Z,99.92
2016-08-25T05:34:06.244Z,98.96
2016-08-25T05:35:05.524Z,99.54
2016-08-25T05:36:05.513Z,99.15
2016-08-25T05:37:05.507Z,99.15
2016-08-25T05:38:05.498Z,99.44
2016-08-25T05:39:05.491Z,98.96
2016-08-25T05:40:05.483Z,99.54
2016-08-25T05:41:05.476Z,99.35
2016-08-25T05:42:06.171Z,99.01
2016-08-25T05:43:05.468Z,99.44
2016-08-25T05:44:05.451Z,98.91
2016-08-25T05:45:06.153Z,98.91
2016-08-25T05:46:06.141Z,99.01
2016-08-25T05:47:06.135Z,98.91
2016-08-25T05:48:06.130Z,98.63
2016-08-25T05:49:06.120Z,99.01
2016-08-25T05:50:05.405Z,98.44
2016-08-25T05:51:05.399Z,98.82
2016-08-25T05:52:05.387Z,98.24
2016-08-25T05:53:05.381Z,97.76
2016-08-25T05:54:05.377Z,98.14
2016-08-25T05:55:05.364Z,98.14
2016-08-25T05:56:05.567Z,98.14
2016-08-25T05:57:05.353Z,98.05
2016-08-25T05:58:05.341Z,97.57
2016-08-25T05:59:05.335Z,97.67
2016-08-25T06:00:05.331Z,97.86
2016-08-25T06:01:06.028Z,97.76
2016-08-25T06:02:06.019Z,97.96
2016-08-25T06:03:06.015Z,98.39
2016-08-25T06:04:05.299Z,97.71
2016-08-25T06:05:05.291Z,97.42
2016-08-25T06:06:05.992Z,98
2016-08-25T06:07:05.275Z,97.81
2016-08-25T06:08:05.980Z,97.24
2016-08-25T06:09:05.261Z,97.24
2016-08-25T06:10:05.959Z,97.52
2016-08-25T06:11:05.245Z,97.14
2016-08-25T06:12:05.950Z,96.94
2016-08-25T06:13:05.937Z,97.24
2016-08-25T06:14:05.222Z,96.85
2016-08-25T06:15:05.937Z,96.66
2016-08-25T06:16:05.209Z,96.94
2016-08-25T06:17:05.199Z,96.61
2016-08-25T06:18:05.899Z,96.32
2016-08-25T06:19:05.188Z,95.94
2016-08-25T06:20:05.179Z,96.03
2016-08-25T06:21:05.175Z,96.51
2016-08-25T06:22:05.873Z,96.22
2016-08-25T06:23:05.867Z,96.03
2016-08-25T06:24:05.152Z,96.51
2016-08-25T06:25:05.853Z,95.55
2016-08-25T06:26:05.135Z,95.5
2016-08-25T06:27:05.134Z,95.84
2016-08-25T06:28:05.836Z,95.79
2016-08-25T06:29:05.114Z,95.02
2016-08-25T06:30:05.816Z,94.73
2016-08-25T06:31:05.810Z,94.15
2016-08-25T06:32:05.096Z,94.15
2016-08-25T06:33:05.792Z,94.54
2016-08-25T06:34:05.080Z,93.38
2016-08-25T06:35:05.781Z,93.33
2016-08-25T06:36:05.769Z,93.14
2016-08-25T06:37:05.767Z,93.33
2016-08-25T06:38:05.055Z,92.08
2016-08-25T06:39:05.042Z,91.89
2016-08-25T06:40:05.036Z,91.99
2016-08-25T06:41:05.032Z,91.31
2016-08-25T06:42:05.728Z,91.69
2016-08-25T06:43:05.727Z,92.18
2016-08-25T06:44:05.717Z,91.26
2016-08-25T06:45:05.712Z,91.26
2016-08-25T06:46:05.704Z,91.55
2016-08-25T06:47:04.986Z,91.93
2016-08-25T06:48:04.980Z,91.55
2016-08-25T06:49:04.983Z,91.06
2016-08-25T06:50:05.673Z,91.36
2016-08-25T06:51:05.670Z,91.06
2016-08-25T06:52:05.664Z,91.06
2016-08-25T06:53:04.948Z,90.48
2016-08-25T06:54:04.940Z,90
2016-08-25T06:55:05.643Z,89.04
2016-08-25T06:56:04.927Z,88.51
2016-08-25T06:57:04.923Z,89.09
2016-08-25T06:58:05.623Z,88.6
2016-08-25T06:59:04.907Z,88.31
2016-08-25T07:00:04.900Z,87.2
2016-08-25T07:01:05.601Z,87.01
2016-08-25T07:02:04.887Z,87.49
2016-08-25T07:03:04.881Z,87.1
2016-08-25T07:04:04.873Z,87.01
2016-08-25T07:05:04.869Z,86.04
2016-08-25T07:06:04.858Z,85.7
2016-08-25T07:07:05.560Z,85.7
2016-08-25T07:08:04.847Z,85.6
2016-08-25T07:09:04.854Z,84.25
2016-08-25T07:10:05.542Z,85.7
2016-08-25T07:11:04.826Z,85.31
2016-08-25T07:12:05.527Z,84.93
2016-08-25T07:13:04.819Z,84.16
2016-08-25T07:14:05.518Z,84.16
2016-08-25T07:15:04.800Z,84.16
2016-08-25T07:16:05.504Z,83.91
2016-08-25T07:17:05.497Z,84.2
2016-08-25T07:18:04.782Z,84.58
2016-08-25T07:19:05.488Z,83.72
2016-08-25T07:20:05.475Z,83.14
2016-08-25T07:21:05.470Z,84.3
2016-08-25T07:22:04.759Z,84.2
2016-08-25T07:23:05.458Z,82.75
2016-08-25T07:24:04.747Z,83.42
2016-08-25T07:25:04.741Z,81.78
2016-08-25T07:26:05.438Z,81.98
2016-08-25T07:27:04.723Z,81.05
2016-08-25T07:28:05.434Z,81.24
2016-08-25T07:29:04.716Z,79.5
2016-08-25T07:30:05.418Z,77.86
2016-08-25T07:31:04.702Z,77.42
2016-08-25T07:32:05.406Z,77.71
2016-08-25T07:33:04.687Z,77.71
2016-08-25T07:34:04.686Z,76.84
2016-08-25T07:35:04.678Z,76.74
2016-08-25T07:36:04.672Z,77.32
2016-08-25T07:37:04.666Z,77.51
2016-08-25T07:38:04.660Z,78.38
2016-08-25T07:39:05.363Z,77.71
2016-08-25T07:40:04.650Z,77.42
2016-08-25T07:41:04.641Z,75.87
2016-08-25T07:42:05.345Z,76.1
2016-08-25T07:43:04.627Z,76.97
2016-08-25T07:44:04.628Z,77.07
2016-08-25T07:45:05.329Z,75.13
2016-08-25T07:46:04.610Z,74.94
2016-08-25T07:47:04.607Z,75.27
2016-08-25T07:48:04.601Z,75.75
2016-08-25T07:49:05.304Z,75.37
2016-08-25T07:50:04.590Z,76.14
2016-08-25T07:51:04.584Z,76.33
2016-08-25T07:52:05.294Z,76.53
2016-08-25T07:53:04.588Z,74.88
2016-08-25T07:54:04.567Z,74.88
2016-08-25T07:55:05.269Z,74.79
2016-08-25T07:56:05.466Z,75.07
2016-08-25T07:57:04.549Z,75.07
2016-08-25T07:58:04.543Z,73.72
2016-08-25T07:59:04.768Z,70.53
2016-08-25T08:00:04.533Z,70.76
2016-08-25T08:01:05.233Z,71.82
2016-08-25T08:02:04.520Z,70.66
2016-08-25T08:03:04.528Z,70.27
2016-08-25T08:04:04.511Z,70.08
2016-08-25T08:05:05.208Z,69.98
2016-08-25T08:06:04.501Z,69.53
2016-08-25T08:07:04.491Z,68.66
2016-08-25T08:08:04.490Z,69.59
2016-08-25T08:09:05.196Z,69.53
2016-08-25T08:10:04.477Z,67.6
2016-08-25T08:11:04.487Z,69.53
2016-08-25T08:12:04.465Z,69.24
2016-08-25T08:13:04.461Z,69.82
2016-08-25T08:14:04.455Z,69.34
2016-08-25T08:15:04.454Z,68.76
2016-08-25T08:16:04.441Z,67.4
2016-08-25T08:17:04.439Z,67.02
2016-08-25T08:18:04.434Z,65.2
2016-08-25T08:19:04.429Z,63.91
2016-08-25T08:20:04.427Z,60.97
2016-08-25T08:21:04.422Z,60.74
2016-08-25T08:22:04.429Z,60.93
2016-08-25T08:23:04.416Z,59.18
2016-08-25T08:24:04.410Z,60.83
2016-08-25T08:25:05.119Z,59.92
2016-08-25T08:26:05.106Z,61.38
2016-08-25T08:27:04.393Z,60.51
2016-08-25T08:28:04.390Z,59.92
2016-08-25T08:29:04.387Z,59.54
2016-08-25T08:30:04.381Z,60.54
2016-08-25T08:31:05.084Z,57.62
2016-08-25T08:32:04.373Z,57.65
2016-08-25T08:33:05.078Z,55.25
2016-08-25T08:34:05.072Z,53.36
2016-08-25T08:35:04.361Z,53.41
2016-08-25T08:36:04.357Z,53.14
2016-08-25T08:37:05.065Z,51.21
2016-08-25T08:38:04.347Z,51.12
2016-08-25T08:39:04.348Z,51.61
2016-08-25T08:40:05.050Z,51.21
2016-08-25T08:41:04.341Z,52.39
2016-08-25T08:42:05.044Z,51.21
2016-08-25T08:43:04.331Z,51.41
2016-08-25T08:44:04.329Z,50.73
2016-08-25T08:45:04.326Z,50.41
2016-08-25T08:46:05.028Z,51.68
2016-08-25T08:47:05.026Z,51.65
2016-08-25T08:48:04.314Z,51.75
2016-08-25T08:49:05.026Z,52.31
2016-08-25T08:50:04.310Z,53.85
2016-08-25T08:51:04.306Z,54.03
2016-08-25T08:52:05.008Z,54.33
2016-08-25T08:53:05.005Z,54.3
2016-08-25T08:54:04.295Z,55.86
2016-08-25T08:55:04.340Z,55.57
2016-08-25T08:56:04.288Z,56.84
2016-08-25T08:57:04.283Z,55.66
2016-08-25T08:58:04.277Z,55.27
2016-08-25T08:59:04.272Z,55.57
2016-08-25T09:00:04.266Z,55.96
2016-08-25T09:01:04.265Z,56.64
2016-08-25T09:02:04.973Z,56.03
2016-08-25T09:03:04.257Z,55.64
2016-08-25T09:04:04.255Z,55.93
2016-08-25T09:05:04.248Z,56.51
2016-08-25T09:06:04.245Z,57.56
2016-08-25T09:07:04.244Z,57.36
2016-08-25T09:08:04.943Z,57.36
2016-08-25T09:09:04.240Z,57.26
2016-08-25T09:10:04.231Z,57.07
2016-08-25T09:11:04.228Z,55.83
2016-08-25T09:12:04.931Z,56.25
2016-08-25T09:13:04.926Z,55.89
2016-08-25T09:14:04.924Z,56.67
2016-08-25T09:15:04.940Z,57.06
2016-08-25T09:16:04.210Z,56.67
2016-08-25T09:17:04.910Z,57.32
2016-08-25T09:18:04.200Z,56.93
2016-08-25T09:19:04.197Z,57.22
2016-08-25T09:20:04.193Z,57.12
2016-08-25T09:21:05.137Z,57.03
2016-08-25T09:22:04.183Z,56.71
2016-08-25T09:23:04.889Z,55.27
2016-08-25T09:24:04.173Z,55.66
2016-08-25T09:25:04.198Z,55.66
2016-08-25T09:26:04.887Z,54.21
2016-08-25T09:27:04.166Z,53.62
2016-08-25T09:28:04.157Z,54.13
2016-08-25T09:29:04.921Z,55.6
2016-08-25T09:30:04.163Z,53.85
2016-08-25T09:31:04.146Z,54.23
2016-08-25T09:32:04.849Z,53.45
2016-08-25T09:33:04.138Z,52.77
2016-08-25T09:34:04.847Z,52.19
2016-08-25T09:35:04.845Z,53.06
2016-08-25T09:36:04.836Z,51.12
2016-08-25T09:37:04.121Z,51.21
2016-08-25T09:38:04.819Z,50.92
2016-08-25T09:39:04.115Z,50.14
2016-08-25T09:40:04.111Z,49.58
2016-08-25T09:41:04.103Z,48.29
2016-08-25T09:42:04.101Z,50.04
2016-08-25T09:43:04.160Z,48.88
2016-08-25T09:44:04.798Z,48.68
2016-08-25T09:45:04.098Z,48.29
2016-08-25T09:46:04.848Z,47.05
2016-08-25T09:47:04.086Z,48.39
2016-08-25T09:48:04.077Z,48.88
2016-08-25T09:49:04.783Z,47.8
2016-08-25T09:50:04.777Z,47.34
2016-08-25T09:51:04.768Z,45.78
2016-08-25T09:52:04.059Z,45.98
2016-08-25T09:53:04.763Z,46.27
2016-08-25T09:54:04.758Z,45.98
2016-08-25T09:55:04.045Z,45.78
2016-08-25T09:56:04.245Z,46.37
2016-08-25T09:57:04.747Z,46.08
2016-08-25T09:58:04.738Z,45.49
2016-08-25T09:59:04.030Z,44.23
2016-08-25T10:00:04.733Z,44.54
2016-08-25T10:01:04.728Z,44.83
2016-08-25T10:02:04.019Z,45.03
2016-08-25T10:03:04.717Z,45.51
2016-08-25T10:04:04.714Z,44.44
2016-08-25T10:05:04.005Z,45.03
2016-08-25T10:06:04.003Z,44.34
2016-08-25T10:07:04.708Z,44.34
2016-08-25T10:08:03.993Z,43.57
2016-08-25T10:09:03.986Z,43.66
2016-08-25T10:10:03.982Z,42.2
2016-08-25T10:11:03.978Z,41.52
2016-08-25T10:12:04.681Z,42.61
2016-08-25T10:13:03.990Z,42.61
2016-08-25T10:14:03.961Z,42.02
2016-08-25T10:15:03.962Z,41.44
2016-08-25T10:16:03.957Z,41.93
2016-08-25T10:17:04.660Z,42.34
2016-08-25T10:18:03.949Z,42.51
2016-08-25T10:19:03.995Z,42.32
2016-08-25T10:20:03.938Z,42.24
2016-08-25T10:21:04.645Z,42.41
2016-08-25T10:22:03.936Z,42.41
2016-08-25T10:23:03.927Z,41.15
2016-08-25T10:24:04.637Z,41.66
2016-08-25T10:25:03.917Z,40.88
2016-08-25T10:26:03.918Z,40.39
2016-08-25T10:27:04.618Z,41.56
2016-08-25T10:28:04.617Z,40.78
2016-08-25T10:29:04.623Z,40.88
2016-08-25T10:30:03.899Z,40.58
2016-08-25T10:31:03.896Z,40.29
2016-08-25T10:32:03.893Z,39.12
2016-08-25T10:33:03.885Z,39.41
2016-08-25T10:34:03.887Z,38.63
2016-08-25T10:35:04.589Z,39.41
2016-08-25T10:36:03.876Z,40.21
2016-08-25T10:37:04.581Z,39.43
2016-08-25T10:38:03.888Z,38.09
2016-08-25T10:39:04.582Z,37.89
2016-08-25T10:40:04.593Z,38.2
2016-08-25T10:41:03.903Z,36.83
2016-08-25T10:42:03.854Z,35.95
2016-08-25T10:43:04.558Z,36.75
2016-08-25T10:44:03.844Z,36.26
2016-08-25T10:45:04.550Z,35.87
2016-08-25T10:46:04.544Z,36.18
2016-08-25T10:47:04.545Z,36.47
2016-08-25T10:48:04.542Z,35.69
2016-08-25T10:49:03.828Z,35.4
2016-08-25T10:50:03.826Z,36.28
2016-08-25T10:51:03.820Z,36.59
2016-08-25T10:52:03.816Z,35.91
2016-08-25T10:53:04.528Z,33.65
2016-08-25T10:54:04.518Z,33.85
2016-08-25T10:55:03.810Z,34.64
2016-08-25T10:56:03.806Z,32.87
2016-08-25T10:57:04.509Z,35.61
2016-08-25T10:58:03.805Z,35.13
2016-08-25T10:59:03.796Z,33.97
2016-08-25T11:00:03.795Z,32.3
2016-08-25T11:01:04.516Z,32.01
2016-08-25T11:02:03.791Z,32.4
2016-08-25T11:03:04.496Z,34.16
2016-08-25T11:04:04.496Z,31.34
2016-08-25T11:05:04.491Z,31.24
2016-08-25T11:06:03.786Z,32.92
2016-08-25T11:07:03.786Z,31.74
2016-08-25T11:08:04.499Z,33.31
2016-08-25T11:09:03.785Z,33.02
2016-08-25T11:10:04.488Z,30.87
2016-08-25T11:11:03.782Z,32.43
2016-08-25T11:12:03.782Z,31.96
2016-08-25T11:13:04.489Z,33.33
2016-08-25T11:14:03.786Z,30.6
2016-08-25T11:15:03.786Z,32.09
2016-08-25T11:16:03.786Z,30.63
2016-08-25T11:17:03.789Z,29.37
2016-08-25T11:18:03.794Z,27.22
2016-08-25T11:19:03.797Z,26.74
2016-08-25T11:20:03.797Z,27.44
2016-08-25T11:21:04.508Z,26.75
2016-08-25T11:22:04.512Z,26.77
2016-08-25T11:23:04.515Z,24.71
2016-08-25T11:24:03.859Z,25.01
2016-08-25T11:25:04.522Z,25.71
2016-08-25T11:26:03.817Z,25.12
2016-08-25T11:27:03.850Z,27.69
2016-08-25T11:28:04.542Z,23.85
2016-08-25T11:29:04.543Z,26.62
2016-08-25T11:30:03.837Z,23.28
2016-08-25T11:31:03.839Z,24.86
2016-08-25T11:32:03.845Z,22.41
2016-08-25T11:33:03.849Z,22.31
2016-08-25T11:34:03.856Z,23.9
2016-08-25T11:35:04.573Z,24.98
2016-08-25T11:36:04.575Z,23.8
2016-08-25T11:37:03.882Z,23.22
2016-08-25T11:38:04.586Z,22.44
2016-08-25T11:39:03.886Z,23.92
2016-08-25T11:40:04.616Z,24.32
2016-08-25T11:41:03.895Z,22.26
2016-08-25T11:42:03.900Z,21.48
2016-08-25T11:43:04.619Z,20.68
2016-08-25T11:44:04.625Z,19.11
2016-08-25T11:46:03.930Z,18.82
2016-08-25T11:47:03.937Z,18.82
2016-08-25T11:48:03.944Z,20.6
2016-08-25T11:49:03.953Z,20.01
2016-08-25T11:50:04.680Z,19.82
2016-08-25T11:51:03.974Z,17.55
2016-08-25T11:52:04.689Z,17.25
2016-08-25T11:53:03.992Z,18.84
2016-08-25T11:54:04.000Z,16.86
2016-08-25T11:55:04.704Z,16.95
2016-08-25T11:56:04.923Z,20.21
2016-08-25T11:57:04.015Z,20.32
2016-08-25T11:58:04.031Z,19.13
2016-08-25T11:59:04.034Z,17.75
2016-08-25T12:00:04.043Z,19.15
2016-08-25T12:01:04.051Z,16.97
2016-08-25T12:02:04.767Z,20.05
2016-08-25T12:03:04.074Z,17.28
2016-08-25T12:04:04.077Z,18.98
2016-08-25T12:05:04.795Z,19.37
2016-08-25T12:06:04.104Z,17.6
2016-08-25T12:07:04.818Z,16.31
2016-08-25T12:08:04.827Z,16.81
2016-08-25T12:09:04.121Z,16.51
2016-08-25T12:10:04.838Z,15.12
2016-08-25T12:11:04.141Z,16.6
2016-08-25T12:12:04.862Z,17
2016-08-25T12:13:04.162Z,13.92
2016-08-25T12:14:04.179Z,15.8
2016-08-25T12:15:04.898Z,15.79
2016-08-25T12:16:04.187Z,16.89
2016-08-25T12:17:04.196Z,14.82
2016-08-25T12:18:04.213Z,16.82
2016-08-25T12:19:04.940Z,14.04
2016-08-25T12:20:04.222Z,13.15
2016-08-25T12:21:04.242Z,13.34
2016-08-25T12:22:04.243Z,15.64
2016-08-25T12:23:04.250Z,13.15
2016-08-25T12:24:04.268Z,14.25
2016-08-25T12:25:04.281Z,17.05
2016-08-25T12:26:05.000Z,15.26
2016-08-25T12:27:04.999Z,11.87
2016-08-25T12:28:05.007Z,12.67
2016-08-25T12:29:04.313Z,13.67
2016-08-25T12:30:05.027Z,14.07
2016-08-25T12:31:04.334Z,12.17
2016-08-25T12:32:04.338Z,12.97
2016-08-25T12:33:04.348Z,12.27
2016-08-25T12:34:04.414Z,12.47
2016-08-25T12:35:04.369Z,11.08
2016-08-25T12:36:04.377Z,10.77
2016-08-25T12:37:05.093Z,11.77
2016-08-25T12:38:04.400Z,14.27
2016-08-25T12:39:04.408Z,11.18
2016-08-25T12:40:04.424Z,11.27
2016-08-25T12:41:04.427Z,12.46
2016-08-25T12:42:04.436Z,11.37
2016-08-25T12:43:05.156Z,11.66
2016-08-25T12:44:04.458Z,11.87
2016-08-25T12:45:05.171Z,11.77
2016-08-25T12:46:04.481Z,14.26
2016-08-25T12:47:04.485Z,13.77
2016-08-25T12:48:04.496Z,11.68
2016-08-25T12:49:04.507Z,13.38
2016-08-25T12:50:04.564Z,11.08
2016-08-25T12:51:04.526Z,11.29
2016-08-25T12:52:04.533Z,11.98
2016-08-25T12:53:04.544Z,12.97
2016-08-25T12:54:05.266Z,13.38
2016-08-25T12:55:05.272Z,12.08
2016-08-25T12:56:04.624Z,11.99